Portada
METAR-TAF:

METAR-TAF

Aeroports :

Nebraska City Municipal Airport

Nebraska City, Nebraska, Estats Units d'Amèrica

latitud: 40-36N, longitud: 095-51W, altitud: 354 m

Observació

L'informe es va fer fa 25 minuts, a les 11:35 UTC
Vent 4 kt del Sud/Sud-Oest
Temperatura 12°C
Humitat 100%
Pressió 1021 hPa
Visibilitat: 11.3 km
Cel clar

METAR: KAFK 221135Z AUTO 20004KT 7SM CLR 12/12 A3016 RMK AO2 T01240124

Hora: 07:00 (12:00 UTC)


TAF: manca

Observacions i pronòstics meteorològics de més de 4000 aeroports (METAR i TAF).

Les estacions disponibles són els punts grocs i vermells al mapa.

Posi el ratolí al punt desitjat per veure el nom de l'estació.

Feu clic per veure les observacions i els pronòstics meteorològics.

Per canviar el mapa: feu clic els botons verds amb una creu de color negre per apropar; al botó verd amb un guió per allunyar la imatge; o en les fletxes verdes per a mapes adjacents.


METAR-TAF: